Idaho, Ohio
Current Conditions -  °F | °C
As of 7:15 AM on Thursday 29 Jan 2015 (Local Time) from KRZT Reporting Station
Light Rain Light Rain  
Wind Chill: 24°   Ceiling: 6500
Heat Index: 32°   Visibility: 10mi
Dew Point: 21°   Wind: 10mph
Humidity: 64%   Direction: 180°S
Pressure: 29.96"   Gusts: 16mph
Location:  39.0491°N, 83.1454°W
Report Text: KRZT 291215Z AUTO 18009G14KT 10SM -RA SCT055 BKN065 OVC120 00/M06 A2996 RMK AO2
Loading
Personal Weather Stations






























Interactive Weather Map New forecast layout! Learn more

10-Day Weather Forecast

Advertisements
Track Severe Weather on mobile